This is the latest recevied weather packets stored in our database for station/object NC4J. If no packets are shown the sender has not sent any weather packets the latest 1 day(s).
| Time | Temp. | Humidity | Pressure | Rain* | Wind** | Luminosity | Snow |
|---|---|---|---|---|---|---|---|
| 1777995712 | 20.56° C | 35% | 1017.1 hPa | 0 mm | 0.45 m/s, 28° | 63 W/m² | - |
| 1777995409 | 20.56° C | 36% | 1017.4 hPa | 0 mm | 0.45 m/s, 179° | 59 W/m² | - |
| 1777995106 | 20.56° C | 37% | 1017.4 hPa | 0 mm | 0.89 m/s, 248° | 76 W/m² | - |
| 1777994803 | 20.56° C | 41% | 1017.6 hPa | 0 mm | 0.89 m/s, 2° | 78 W/m² | - |
| 1777994498 | 20° C | 40% | 1017.4 hPa | 0 mm | 1.34 m/s, 351° | 103 W/m² | - |
| 1777994194 | 20° C | 39% | 1017.3 hPa | 0 mm | 1.79 m/s, 299° | 86 W/m² | - |
| 1777993891 | 20° C | 43% | 1017.6 hPa | 0 mm | 0 m/s | 79 W/m² | - |
| 1777993587 | 19.44° C | 41% | 1017.6 hPa | 0 mm | 0.89 m/s, 354° | 86 W/m² | - |
| 1777993285 | 19.44° C | 42% | 1017.6 hPa | 0 mm | 1.79 m/s, 329° | 102 W/m² | - |
| 1777992980 | 19.44° C | 42% | 1017.6 hPa | 0 mm | 1.79 m/s, 329° | 102 W/m² | - |
| 1777992679 | 19.44° C | 44% | 1017.7 hPa | 0 mm | 0.89 m/s, 346° | 81 W/m² | - |
| 1777992376 | 18.89° C | 46% | 1017.6 hPa | 0 mm | 1.34 m/s, 313° | 69 W/m² | - |
| 1777992074 | 18.89° C | 45% | 1017.7 hPa | 0 mm | 0.45 m/s, 122° | 72 W/m² | - |
| 1777991771 | 18.33° C | 47% | 1017.3 hPa | 0 mm | 0.89 m/s, 344° | 66 W/m² | - |
| 1777991468 | 18.33° C | 48% | 1017.4 hPa | 0 mm | 0.89 m/s, 139° | 70 W/m² | - |
| 1777991165 | 17.78° C | 54% | 1017.3 hPa | 0 mm | 0 m/s | 71 W/m² | - |
| 1777990862 | 17.78° C | 55% | 1017.4 hPa | 0 mm | 0 m/s | 80 W/m² | - |
| 1777990560 | 17.22° C | 55% | 1017.3 hPa | 0 mm | 0.45 m/s, 51° | 55 W/m² | - |
| 1777990256 | 16.67° C | 55% | 1017.2 hPa | 0 mm | 0 m/s | 47 W/m² | - |
| 1777989953 | 16.11° C | 56% | 1017.3 hPa | 0 mm | 0.45 m/s, 45° | 63 W/m² | - |
| 1777989650 | 16.11° C | 56% | 1017.4 hPa | 0 mm | 0 m/s | 45 W/m² | - |
| 1777989346 | 15.56° C | 57% | 1017.6 hPa | 0 mm | 0 m/s | 55 W/m² | - |
| 1777989043 | 15.56° C | 58% | 1017.4 hPa | 0 mm | 0 m/s | 70 W/m² | - |
| 1777988738 | 15° C | 61% | 1017.3 hPa | 0 mm | 0.45 m/s, 38° | 36 W/m² | - |
| 1777988436 | 15° C | 62% | 1017.3 hPa | 0 mm | 0.45 m/s, 8° | 30 W/m² | - |
* Rain latest hour (hover to see other rain measurements)
** Current wind speed in m/s (hover to see current wind gust speed)